This is the latest recevied weather packets stored in our database for station/object VANOK. If no packets are shown the sender has not sent any weather packets the latest 10 day(s).
| Time | Temp. | Humidity | Pressure | Rain* | Wind** | Luminosity | Snow |
|---|---|---|---|---|---|---|---|
| 1777626422 | 12.22° C | 62% | 1022 hPa | - | - | - | - |
| 1777625222 | 12.22° C | 59% | 1022 hPa | - | - | - | - |
| 1777624022 | 11.67° C | 63% | 1022.1 hPa | - | - | - | - |
| 1777622824 | 10.56° C | 67% | 1022.1 hPa | - | - | - | - |
| 1777621622 | 10.56° C | 64% | 1022.2 hPa | - | - | - | - |
| 1777620422 | 11.11° C | 62% | 1022.2 hPa | - | - | - | - |
| 1777619221 | 10° C | 67% | 1022.2 hPa | - | - | - | - |
| 1777618021 | 9.44° C | 69% | 1022.2 hPa | - | - | - | - |
| 1777616823 | 9.44° C | 71% | 1022.1 hPa | - | - | - | - |
| 1777615621 | 7.78° C | 77% | 1022.1 hPa | - | - | - | - |
| 1777614421 | 7.78° C | 80% | 1022.3 hPa | - | - | - | - |
| 1777613221 | 7.22° C | 81% | 1022.3 hPa | - | - | - | - |
| 1777612021 | 7.22° C | 83% | 1022.4 hPa | - | - | - | - |
| 1777610821 | 7.22° C | 84% | 1022.4 hPa | - | - | - | - |
| 1777609621 | 6.11° C | 86% | 1022.4 hPa | - | - | - | - |
| 1777608422 | 6.67° C | 86% | 1022.5 hPa | - | - | - | - |
| 1777607221 | 5.56° C | 89% | 1022.5 hPa | - | - | - | - |
| 1777606022 | 5.56° C | 89% | 1022.6 hPa | - | - | - | - |
| 1777604821 | 5.56° C | 90% | 1022.8 hPa | - | - | - | - |
| 1777603622 | 5.56° C | 90% | 1023 hPa | - | - | - | - |
| 1777602422 | 5° C | 89% | 1023 hPa | - | - | - | - |
| 1777601221 | 5.56° C | 88% | 1023 hPa | - | - | - | - |
| 1777600021 | 5.56° C | 87% | 1023 hPa | - | - | - | - |
| 1777598821 | 5.56° C | 86% | 1022.9 hPa | - | - | - | - |
| 1777597621 | 5.56° C | 86% | 1022.9 hPa | - | - | - | - |
* Rain since midnight (hover to see other rain measurements)
** Current wind speed in m/s (hover to see current wind gust speed)